Time;durP1;ratioP1;P1;durP2;ratioP2;P2;SDS_P1;SDS_P2;PMS_P1;PMS_P2;Temp;Humidity;BMP_temperature;BMP_pressure;BME280_temperature;BME280_humidity;BME280_pressure;Samples;Min_cycle;Max_cycle;Signal;HPM_P1;HPM_P2
2021/07/21 00:01:31;;;;;;;10.87;8.70;;;;;;;;;;3566005;39;20794;-74
2021/07/21 00:03:57;;;;;;;11.00;8.27;;;;;;;;;;3563378;39;20408;-74
2021/07/21 00:06:23;;;;;;;9.70;8.40;;;;;;;;;;3574872;39;20950;-75
2021/07/21 00:08:49;;;;;;;10.57;8.20;;;;;;;;;;3571943;39;20727;-75
2021/07/21 00:14:03;;;;;;;16.07;8.67;;;;;;;;;;3574275;39;20539;-75
2021/07/21 00:16:35;;;;;;;10.50;8.43;;;;;;;;;;3574785;39;20837;-75
2021/07/21 00:21:50;;;;;;;12.00;8.30;;;;;;;;;;3551232;39;20797;-75
2021/07/21 00:24:16;;;;;;;12.93;9.17;;;;;;;;;;3563869;39;20432;-75
2021/07/21 00:26:42;;;;;;;13.13;10.10;;;;;;;;;;3579830;39;20481;-75
2021/07/21 00:29:08;;;;;;;14.50;10.33;;;;;;;;;;3564338;39;20951;-74
2021/07/21 00:31:34;;;;;;;10.27;9.20;;;;;;;;;;3574947;39;20433;-75
2021/07/21 00:34:00;;;;;;;13.50;9.57;;;;;;;;;;3561827;39;20843;-74
2021/07/21 00:36:28;;;;;;;9.07;7.40;;;;;;;;;;3573121;39;20452;-75
2021/07/21 00:38:54;;;;;;;14.37;9.83;;;;;;;;;;3564175;39;22243;-75
2021/07/21 00:41:20;;;;;;;12.30;9.47;;;;;;;;;;3572799;39;20401;-75
2021/07/21 00:43:47;;;;;;;10.63;8.90;;;;;;;;;;3563725;39;20658;-75
2021/07/21 00:46:13;;;;;;;13.07;7.97;;;;;;;;;;3554102;39;20416;-75
2021/07/21 00:48:40;;;;;;;15.93;9.40;;;;;;;;;;3563295;39;20420;-75
2021/07/21 00:51:06;;;;;;;11.47;8.50;;;;;;;;;;3564052;39;20813;-75
2021/07/21 00:53:33;;;;;;;13.50;9.77;;;;;;;;;;3555498;39;20439;-75
2021/07/21 00:55:59;;;;;;;11.87;9.63;;;;;;;;;;3573143;39;20412;-75
2021/07/21 00:58:26;;;;;;;11.13;9.70;;;;;;;;;;3563202;39;20809;-75
2021/07/21 01:00:55;;;;;;;11.30;8.77;;;;;;;;;;3563017;39;21386;-74
2021/07/21 01:03:21;;;;;;;12.30;9.60;;;;;;;;;;3583569;22;21926;-81
2021/07/21 01:05:47;;;;;;;12.97;8.87;;;;;;;;;;3558529;40;20417;-80
2021/07/21 01:08:14;;;;;;;10.97;9.03;;;;;;;;;;3568015;40;20464;-81
2021/07/21 01:10:53;;;;;;;13.70;9.93;;;;;;;;;;3559302;40;20394;-81
2021/07/21 01:13:24;;;;;;;15.50;9.57;;;;;;;;;;3568110;40;20445;-81
2021/07/21 01:16:04;;;;;;;17.23;10.10;;;;;;;;;;3557968;40;20413;-81
2021/07/21 01:18:38;;;;;;;12.87;10.20;;;;;;;;;;3557535;40;20413;-81
2021/07/21 01:21:13;;;;;;;17.47;9.10;;;;;;;;;;3557885;40;20406;-81
2021/07/21 01:23:49;;;;;;;12.63;9.63;;;;;;;;;;3569116;40;20405;-80
2021/07/21 01:26:23;;;;;;;14.43;10.27;;;;;;;;;;3565161;40;20422;-81
2021/07/21 01:28:50;;;;;;;14.30;10.03;;;;;;;;;;3557181;40;20413;-81
2021/07/21 01:31:20;;;;;;;16.67;9.70;;;;;;;;;;3549646;40;20388;-81
2021/07/21 01:33:46;;;;;;;15.43;10.57;;;;;;;;;;3567461;40;20514;-81
2021/07/21 01:36:14;;;;;;;13.13;9.53;;;;;;;;;;3546691;40;20813;-81
2021/07/21 01:38:42;;;;;;;13.40;9.70;;;;;;;;;;3552180;40;20401;-82
2021/07/21 01:41:13;;;;;;;13.87;9.07;;;;;;;;;;3558558;40;20507;-81
2021/07/21 01:43:42;;;;;;;14.70;10.80;;;;;;;;;;3557562;40;20441;-81
2021/07/21 01:46:08;;;;;;;11.07;9.70;;;;;;;;;;3558817;40;20469;-81
2021/07/21 01:48:36;;;;;;;12.63;10.43;;;;;;;;;;3559447;40;20524;-82
2021/07/21 01:51:04;;;;;;;18.70;9.70;;;;;;;;;;3547716;40;20402;-81
2021/07/21 01:53:32;;;;;;;12.60;9.13;;;;;;;;;;3550214;40;20443;-82
2021/07/21 01:55:58;;;;;;;13.73;9.63;;;;;;;;;;3560175;40;20383;-82
2021/07/21 01:58:28;;;;;;;17.33;10.60;;;;;;;;;;3558624;40;20475;-81
2021/07/21 02:00:55;;;;;;;11.60;9.17;;;;;;;;;;3548756;40;20426;-82
2021/07/21 02:03:22;;;;;;;13.17;9.40;;;;;;;;;;3558075;40;20542;-82
2021/07/21 02:05:48;;;;;;;11.40;9.63;;;;;;;;;;3548437;40;20459;-82
2021/07/21 02:08:18;;;;;;;13.53;9.60;;;;;;;;;;3568794;40;20505;-81
2021/07/21 02:10:45;;;;;;;16.63;11.07;;;;;;;;;;3549038;40;20448;-81
2021/07/21 02:13:13;;;;;;;13.07;9.83;;;;;;;;;;3570614;40;20405;-81
2021/07/21 02:15:40;;;;;;;16.70;10.83;;;;;;;;;;3568548;40;20418;-80
2021/07/21 02:18:07;;;;;;;10.57;9.50;;;;;;;;;;3549597;40;20774;-81
2021/07/21 02:20:35;;;;;;;13.93;9.50;;;;;;;;;;3565766;40;21520;-81
2021/07/21 02:23:01;;;;;;;20.93;10.53;;;;;;;;;;3557632;40;20414;-81
2021/07/21 02:25:28;;;;;;;14.87;9.37;;;;;;;;;;3567010;40;20783;-81
2021/07/21 02:27:55;;;;;;;11.73;9.40;;;;;;;;;;3557220;40;20483;-81
2021/07/21 02:30:21;;;;;;;12.63;10.50;;;;;;;;;;3561033;40;20409;-81
2021/07/21 02:32:53;;;;;;;18.77;10.07;;;;;;;;;;3559426;40;20459;-81
2021/07/21 02:35:21;;;;;;;14.17;9.47;;;;;;;;;;3559135;40;20376;-81
2021/07/21 02:37:50;;;;;;;12.57;11.00;;;;;;;;;;3558498;40;20384;-81
2021/07/21 02:40:18;;;;;;;12.07;10.50;;;;;;;;;;3546790;40;20441;-81
2021/07/21 02:42:44;;;;;;;12.70;10.63;;;;;;;;;;3547930;40;20417;-82
2021/07/21 02:45:11;;;;;;;11.80;9.90;;;;;;;;;;3549419;40;22852;-82
2021/07/21 02:47:37;;;;;;;13.33;9.60;;;;;;;;;;3558819;40;20486;-81
2021/07/21 02:50:04;;;;;;;13.00;10.13;;;;;;;;;;3549842;40;20406;-81
2021/07/21 02:52:34;;;;;;;13.67;11.10;;;;;;;;;;3558810;40;20406;-81
2021/07/21 02:55:32;;;;;;;12.80;10.47;;;;;;;;;;3557768;40;20386;-82
2021/07/21 02:58:01;;;;;;;17.80;11.10;;;;;;;;;;3511304;40;20501;-82
2021/07/21 03:00:29;;;;;;;14.50;10.17;;;;;;;;;;3520446;40;20896;-82
2021/07/21 03:02:57;;;;;;;15.30;10.37;;;;;;;;;;3511987;40;20848;-82
2021/07/21 03:05:25;;;;;;;13.93;9.40;;;;;;;;;;3518432;40;20414;-81
2021/07/21 03:07:53;;;;;;;13.63;9.73;;;;;;;;;;3520334;40;20783;-82
2021/07/21 03:10:20;;;;;;;12.47;10.17;;;;;;;;;;3523097;40;20399;-82
2021/07/21 03:12:51;;;;;;;16.33;10.40;;;;;;;;;;3519743;40;20429;-81
2021/07/21 03:15:20;;;;;;;11.50;9.37;;;;;;;;;;3511039;40;20418;-81
2021/07/21 03:17:47;;;;;;;24.47;11.53;;;;;;;;;;3509697;40;20489;-82
2021/07/21 03:20:15;;;;;;;15.50;10.33;;;;;;;;;;3500175;40;20393;-81
2021/07/21 03:22:42;;;;;;;17.00;9.83;;;;;;;;;;3520571;40;20870;-81
2021/07/21 03:25:12;;;;;;;16.07;10.10;;;;;;;;;;3520870;40;20577;-81
2021/07/21 03:27:38;;;;;;;11.20;10.00;;;;;;;;;;3520716;40;20403;-81
2021/07/21 03:30:08;;;;;;;11.93;9.70;;;;;;;;;;3518165;40;21142;-83
2021/07/21 03:32:36;;;;;;;10.77;9.47;;;;;;;;;;3520469;40;20502;-82
2021/07/21 03:35:03;;;;;;;13.97;10.60;;;;;;;;;;3556617;40;20403;-81
2021/07/21 03:37:29;;;;;;;13.70;10.20;;;;;;;;;;3558489;40;20406;-80
2021/07/21 03:39:57;;;;;;;11.33;9.10;;;;;;;;;;3566464;40;20424;-81
2021/07/21 03:42:24;;;;;;;13.63;10.13;;;;;;;;;;3549059;40;20406;-81
2021/07/21 03:44:51;;;;;;;11.57;9.80;;;;;;;;;;3549289;40;20389;-81
2021/07/21 03:47:18;;;;;;;15.20;10.70;;;;;;;;;;3560696;40;20446;-81
2021/07/21 03:49:45;;;;;;;14.50;10.30;;;;;;;;;;3554870;40;20644;-81
2021/07/21 03:52:12;;;;;;;14.97;11.37;;;;;;;;;;3565968;40;20442;-81
2021/07/21 03:54:40;;;;;;;17.23;10.53;;;;;;;;;;3557748;40;20744;-81
2021/07/21 03:57:07;;;;;;;19.90;11.93;;;;;;;;;;3560368;40;20423;-81
2021/07/21 03:59:36;;;;;;;13.53;10.37;;;;;;;;;;3558377;40;20395;-82
2021/07/21 04:02:03;;;;;;;12.43;9.83;;;;;;;;;;3558741;40;20415;-81
2021/07/21 04:04:29;;;;;;;16.30;11.00;;;;;;;;;;3547231;40;20429;-81
2021/07/21 04:06:57;;;;;;;15.47;11.03;;;;;;;;;;3556930;40;21149;-81
2021/07/21 04:09:24;;;;;;;15.40;11.30;;;;;;;;;;3546814;40;20383;-81
2021/07/21 04:11:52;;;;;;;10.50;9.30;;;;;;;;;;3558840;40;20430;-81
2021/07/21 04:14:19;;;;;;;15.37;11.83;;;;;;;;;;3554748;40;20423;-81
2021/07/21 04:16:45;;;;;;;19.13;11.30;;;;;;;;;;3557123;40;20449;-82
2021/07/21 04:19:14;;;;;;;14.50;11.33;;;;;;;;;;3555606;40;20418;-81
2021/07/21 04:21:41;;;;;;;18.63;11.10;;;;;;;;;;3555611;40;20868;-81
2021/07/21 04:24:11;;;;;;;12.23;9.80;;;;;;;;;;3557525;40;20446;-82
2021/07/21 04:26:42;;;;;;;16.47;11.47;;;;;;;;;;3536367;40;20467;-82
2021/07/21 04:29:13;;;;;;;12.17;9.10;;;;;;;;;;3555315;40;20445;-81
2021/07/21 04:31:40;;;;;;;13.10;9.80;;;;;;;;;;3556574;40;20394;-80
2021/07/21 04:34:07;;;;;;;12.43;10.40;;;;;;;;;;3546521;40;20374;-80
2021/07/21 04:36:38;;;;;;;13.07;9.40;;;;;;;;;;3556087;40;20446;-82
2021/07/21 04:39:05;;;;;;;9.80;8.80;;;;;;;;;;3554185;40;20532;-80
2021/07/21 04:41:31;;;;;;;11.17;10.03;;;;;;;;;;3554910;40;20414;-79
2021/07/21 04:43:58;;;;;;;13.47;10.57;;;;;;;;;;3544871;40;20434;-81
2021/07/21 04:46:25;;;;;;;12.63;9.70;;;;;;;;;;3554994;40;20462;-80
2021/07/21 04:48:52;;;;;;;13.20;10.23;;;;;;;;;;3537793;40;20434;-81
2021/07/21 04:51:22;;;;;;;15.20;11.70;;;;;;;;;;3555088;40;20408;-81
2021/07/21 04:53:53;;;;;;;12.73;11.37;;;;;;;;;;3551068;40;21142;-81
2021/07/21 04:56:19;;;;;;;11.43;10.43;;;;;;;;;;3546389;40;20492;-81
2021/07/21 04:58:47;;;;;;;11.90;10.73;;;;;;;;;;3539131;40;20461;-81
2021/07/21 05:01:13;;;;;;;11.90;10.70;;;;;;;;;;3557168;40;20633;-81
2021/07/21 05:03:40;;;;;;;12.97;10.27;;;;;;;;;;3553174;40;20743;-81
2021/07/21 05:06:07;;;;;;;10.37;9.27;;;;;;;;;;3557921;40;20507;-81
2021/07/21 05:08:35;;;;;;;14.87;8.97;;;;;;;;;;3548344;40;21183;-82
2021/07/21 05:11:01;;;;;;;20.57;10.43;;;;;;;;;;3555511;40;20421;-81
2021/07/21 05:13:27;;;;;;;17.23;10.20;;;;;;;;;;3552179;40;20418;-81
2021/07/21 05:15:54;;;;;;;12.37;8.97;;;;;;;;;;3552801;40;20544;-81
2021/07/21 05:18:20;;;;;;;11.10;10.10;;;;;;;;;;3555878;40;21189;-81
2021/07/21 05:20:46;;;;;;;9.73;8.43;;;;;;;;;;3540299;40;20496;-81
2021/07/21 05:23:12;;;;;;;15.40;9.10;;;;;;;;;;3554342;40;20446;-81
2021/07/21 05:25:39;;;;;;;15.07;9.40;;;;;;;;;;3547220;40;20473;-81
2021/07/21 05:28:06;;;;;;;11.00;9.80;;;;;;;;;;3554520;40;20472;-81
2021/07/21 05:30:32;;;;;;;10.77;9.50;;;;;;;;;;3553456;40;20507;-81
2021/07/21 05:32:59;;;;;;;16.40;11.50;;;;;;;;;;3539293;40;20525;-80
2021/07/21 05:35:25;;;;;;;14.63;9.57;;;;;;;;;;3539829;40;21435;-80
2021/07/21 05:37:51;;;;;;;14.30;11.27;;;;;;;;;;3557102;40;20505;-80
2021/07/21 05:40:18;;;;;;;14.73;10.83;;;;;;;;;;3547720;40;20441;-80
2021/07/21 05:42:44;;;;;;;14.67;9.63;;;;;;;;;;3556434;40;20450;-80
2021/07/21 05:45:12;;;;;;;12.70;9.63;;;;;;;;;;3556253;40;20454;-80
2021/07/21 05:47:38;;;;;;;17.33;11.20;;;;;;;;;;3547019;40;21607;-80
2021/07/21 05:50:05;;;;;;;11.80;9.57;;;;;;;;;;3546296;40;20406;-80
2021/07/21 05:52:31;;;;;;;14.43;9.80;;;;;;;;;;3548544;40;20411;-80
2021/07/21 05:54:58;;;;;;;11.47;10.13;;;;;;;;;;3556271;40;20433;-80
2021/07/21 05:57:25;;;;;;;14.43;10.80;;;;;;;;;;3558762;40;20534;-80
2021/07/21 05:59:53;;;;;;;15.67;9.90;;;;;;;;;;3556370;40;20572;-80
2021/07/21 06:02:20;;;;;;;14.90;10.20;;;;;;;;;;3549501;40;21322;-80
2021/07/21 06:04:46;;;;;;;12.20;10.17;;;;;;;;;;3558249;40;20438;-80
2021/07/21 06:07:13;;;;;;;16.47;9.73;;;;;;;;;;3557397;40;20418;-80
2021/07/21 06:09:39;;;;;;;11.07;9.53;;;;;;;;;;3556390;40;20395;-80
2021/07/21 06:22:18;;;;;;;11.17;8.77;;;;;;;;;;3555691;40;20481;-80
2021/07/21 06:24:48;;;;;;;12.53;8.93;;;;;;;;;;3556143;40;20413;-80
2021/07/21 06:27:14;;;;;;;13.47;8.60;;;;;;;;;;3554884;40;20790;-81
2021/07/21 06:29:58;;;;;;;10.57;9.30;;;;;;;;;;3555130;40;20399;-80
2021/07/21 06:32:26;;;;;;;11.10;10.00;;;;;;;;;;3554477;40;20831;-80
2021/07/21 06:34:53;;;;;;;21.57;10.00;;;;;;;;;;3540174;40;20426;-80
2021/07/21 06:37:21;;;;;;;13.60;9.73;;;;;;;;;;3564600;40;20758;-80
2021/07/21 06:39:47;;;;;;;16.27;10.27;;;;;;;;;;3549524;40;21491;-81
2021/07/21 06:42:14;;;;;;;12.73;9.93;;;;;;;;;;3547695;40;20437;-81
2021/07/21 06:44:40;;;;;;;11.23;10.13;;;;;;;;;;3555718;40;20815;-81
2021/07/21 06:47:06;;;;;;;13.10;10.23;;;;;;;;;;3540962;40;20470;-80
2021/07/21 06:49:32;;;;;;;14.53;10.07;;;;;;;;;;3557635;40;20425;-81
2021/07/21 06:51:58;;;;;;;12.50;9.17;;;;;;;;;;3550002;40;20441;-81
2021/07/21 06:54:26;;;;;;;14.30;9.57;;;;;;;;;;3555220;40;20429;-82
2021/07/21 06:56:55;;;;;;;10.33;8.23;;;;;;;;;;3542083;40;20423;-81
2021/07/21 06:59:21;;;;;;;9.67;8.20;;;;;;;;;;3554981;40;20426;-81
2021/07/21 07:01:49;;;;;;;9.40;8.00;;;;;;;;;;3547005;40;21362;-80
2021/07/21 07:04:15;;;;;;;9.80;7.93;;;;;;;;;;3561344;40;20485;-81
2021/07/21 07:06:41;;;;;;;12.07;7.80;;;;;;;;;;3556489;40;20444;-80
2021/07/21 07:09:07;;;;;;;14.50;8.03;;;;;;;;;;3550345;40;20402;-80
2021/07/21 07:11:33;;;;;;;11.43;7.43;;;;;;;;;;3550449;40;20420;-80
2021/07/21 07:13:59;;;;;;;11.47;7.30;;;;;;;;;;3568186;40;20408;-81
2021/07/21 07:16:25;;;;;;;9.53;8.57;;;;;;;;;;3568527;40;20437;-81
2021/07/21 07:18:53;;;;;;;14.30;8.60;;;;;;;;;;3569096;40;20441;-81
2021/07/21 07:21:19;;;;;;;9.33;6.53;;;;;;;;;;3569803;40;21142;-81
2021/07/21 07:23:45;;;;;;;9.57;6.80;;;;;;;;;;3550314;40;20414;-81
2021/07/21 07:26:11;;;;;;;12.40;7.10;;;;;;;;;;3559390;40;20433;-81
2021/07/21 07:28:37;;;;;;;7.60;6.87;;;;;;;;;;3551060;40;20426;-80
2021/07/21 07:31:03;;;;;;;10.13;6.90;;;;;;;;;;3566827;40;20419;-80
2021/07/21 07:33:30;;;;;;;9.03;7.53;;;;;;;;;;3565511;40;20425;-80
2021/07/21 07:35:56;;;;;;;7.17;6.47;;;;;;;;;;3547827;40;20433;-80
2021/07/21 07:38:24;;;;;;;7.87;6.27;;;;;;;;;;3558425;40;20408;-80
2021/07/21 07:40:52;;;;;;;13.23;7.70;;;;;;;;;;3550596;40;20490;-80
2021/07/21 07:43:18;;;;;;;7.70;6.97;;;;;;;;;;3557786;40;20414;-80
2021/07/21 07:45:45;;;;;;;9.57;8.67;;;;;;;;;;3559111;40;20422;-81
2021/07/21 07:48:11;;;;;;;9.83;8.90;;;;;;;;;;3567208;40;20386;-81
2021/07/21 07:50:39;;;;;;;9.67;8.77;;;;;;;;;;3549549;40;20409;-81
2021/07/21 07:53:05;;;;;;;9.83;8.93;;;;;;;;;;3558755;40;20437;-81
2021/07/21 07:55:35;;;;;;;10.23;9.13;;;;;;;;;;3560394;40;20421;-81
2021/07/21 07:58:02;;;;;;;11.20;9.90;;;;;;;;;;3565931;40;20394;-81
2021/07/21 08:00:30;;;;;;;8.97;8.20;;;;;;;;;;3551953;40;20410;-81
2021/07/21 08:02:57;;;;;;;10.50;9.57;;;;;;;;;;3548791;40;20421;-81
2021/07/21 08:05:23;;;;;;;11.60;10.40;;;;;;;;;;3556068;40;20513;-81
2021/07/21 08:07:56;;;;;;;9.10;8.40;;;;;;;;;;3564009;40;20861;-81
2021/07/21 08:10:24;;;;;;;9.93;9.13;;;;;;;;;;3557410;40;20429;-81
2021/07/21 08:12:51;;;;;;;8.90;8.20;;;;;;;;;;3548810;40;20419;-82
2021/07/21 08:15:18;;;;;;;10.17;9.37;;;;;;;;;;3557238;40;20406;-81
2021/07/21 08:17:44;;;;;;;9.97;9.17;;;;;;;;;;3555330;40;20398;-80
2021/07/21 08:20:11;;;;;;;9.00;8.30;;;;;;;;;;3564373;40;20403;-81
2021/07/21 08:22:40;;;;;;;9.47;8.67;;;;;;;;;;3557589;40;20497;-81
2021/07/21 08:25:11;;;;;;;10.90;9.80;;;;;;;;;;3548262;40;20466;-81
2021/07/21 08:27:37;;;;;;;8.67;7.03;;;;;;;;;;3556787;40;20788;-81
2021/07/21 08:30:14;;;;;;;7.87;7.13;;;;;;;;;;3549420;40;20545;-81
2021/07/21 08:32:44;;;;;;;8.03;7.20;;;;;;;;;;3550996;40;21030;-81
2021/07/21 08:35:12;;;;;;;9.27;7.30;;;;;;;;;;3561519;40;20446;-81
2021/07/21 08:37:40;;;;;;;8.97;8.17;;;;;;;;;;3542501;40;20407;-81
2021/07/21 08:40:08;;;;;;;11.40;9.07;;;;;;;;;;3561230;40;20836;-82
2021/07/21 08:42:35;;;;;;;9.13;7.70;;;;;;;;;;3561740;40;21150;-82
2021/07/21 08:45:02;;;;;;;11.00;10.00;;;;;;;;;;3561805;40;20433;-82
2021/07/21 08:47:28;;;;;;;10.20;9.40;;;;;;;;;;3570960;40;20988;-81
2021/07/21 08:49:56;;;;;;;9.53;8.47;;;;;;;;;;3551999;40;20579;-81
2021/07/21 08:52:24;;;;;;;8.33;7.53;;;;;;;;;;3559801;40;20437;-81
2021/07/21 08:54:56;;;;;;;8.63;7.93;;;;;;;;;;3557306;40;20454;-81
2021/07/21 08:57:22;;;;;;;8.20;7.50;;;;;;;;;;3560753;40;21359;-82
2021/07/21 08:59:49;;;;;;;8.77;8.10;;;;;;;;;;3559582;40;20451;-81
2021/07/21 09:02:17;;;;;;;10.70;9.33;;;;;;;;;;3552096;40;21093;-82
2021/07/21 09:04:43;;;;;;;9.40;8.50;;;;;;;;;;3567023;40;20481;-82
2021/07/21 09:07:10;;;;;;;10.50;8.33;;;;;;;;;;3542346;40;20418;-81
2021/07/21 09:09:38;;;;;;;9.67;8.87;;;;;;;;;;3559375;40;20462;-82
2021/07/21 09:12:07;;;;;;;9.33;8.43;;;;;;;;;;3554015;40;20410;-81
2021/07/21 09:14:33;;;;;;;8.93;6.30;;;;;;;;;;3564073;40;20418;-81
2021/07/21 09:17:06;;;;;;;7.83;7.20;;;;;;;;;;3560380;40;20422;-82
2021/07/21 09:19:33;;;;;;;8.53;7.83;;;;;;;;;;3553326;40;20594;-82
2021/07/21 09:22:13;;;;;;;10.13;7.80;;;;;;;;;;3555210;40;20416;-82
2021/07/21 09:24:39;;;;;;;9.13;8.33;;;;;;;;;;3551629;40;20445;-81
2021/07/21 09:27:32;;;;;;;9.27;8.17;;;;;;;;;;3557964;40;20819;-80
2021/07/21 09:29:59;;;;;;;9.67;8.77;;;;;;;;;;3550828;40;20723;-82
2021/07/21 09:32:25;;;;;;;8.30;7.60;;;;;;;;;;3563593;40;20804;-82
2021/07/21 09:35:19;;;;;;;6.73;5.97;;;;;;;;;;3563979;40;20477;-82
2021/07/21 09:37:47;;;;;;;19.30;8.37;;;;;;;;;;3568029;40;20401;-82
2021/07/21 09:40:15;;;;;;;7.57;6.17;;;;;;;;;;3562426;40;20524;-82
2021/07/21 09:42:41;;;;;;;7.13;6.53;;;;;;;;;;3564160;40;20425;-82
2021/07/21 09:45:10;;;;;;;7.97;7.27;;;;;;;;;;3551943;40;20418;-82
2021/07/21 09:47:42;;;;;;;6.63;6.03;;;;;;;;;;3562383;40;20406;-82
2021/07/21 09:50:23;;;;;;;8.87;6.83;;;;;;;;;;3562541;40;20427;-82
2021/07/21 09:52:52;;;;;;;7.17;6.57;;;;;;;;;;3561318;40;20453;-81
2021/07/21 09:55:19;;;;;;;6.60;5.80;;;;;;;;;;3569180;40;21294;-81
2021/07/21 09:58:05;;;;;;;6.67;5.97;;;;;;;;;;3561727;40;20383;-81
2021/07/21 10:00:44;;;;;;;11.53;8.90;;;;;;;;;;3550979;40;20429;-81
2021/07/21 10:03:13;;;;;;;8.20;7.43;;;;;;;;;;3559327;40;20436;-81
2021/07/21 10:05:56;;;;;;;8.90;8.10;;;;;;;;;;3559495;40;20454;-81
2021/07/21 10:08:52;;;;;;;8.00;7.33;;;;;;;;;;3562677;40;20450;-81
2021/07/21 10:11:34;;;;;;;7.83;7.13;;;;;;;;;;3565746;40;20461;-82
2021/07/21 10:14:00;;;;;;;9.80;9.00;;;;;;;;;;3561803;40;20438;-81
2021/07/21 10:16:45;;;;;;;8.50;7.80;;;;;;;;;;3561993;40;20801;-82
2021/07/21 10:19:29;;;;;;;7.97;7.37;;;;;;;;;;3559653;40;20406;-81
2021/07/21 10:22:02;;;;;;;7.73;7.07;;;;;;;;;;3546198;40;20410;-82
2021/07/21 10:24:33;;;;;;;8.17;7.37;;;;;;;;;;3561640;40;20822;-81
2021/07/21 10:27:00;;;;;;;8.33;7.63;;;;;;;;;;3561865;40;20563;-81
2021/07/21 10:29:27;;;;;;;8.23;7.30;;;;;;;;;;3542731;40;21514;-81
2021/07/21 10:31:55;;;;;;;7.70;7.00;;;;;;;;;;3551172;40;20415;-82
2021/07/21 10:34:32;;;;;;;7.00;6.40;;;;;;;;;;3566433;40;20450;-82
2021/07/21 10:37:17;;;;;;;8.40;7.60;;;;;;;;;;3562313;40;20421;-81
2021/07/21 10:39:44;;;;;;;9.17;8.57;;;;;;;;;;3552645;40;20474;-81
2021/07/21 10:42:12;;;;;;;8.90;8.10;;;;;;;;;;3557485;40;21250;-81
2021/07/21 10:44:39;;;;;;;8.73;7.97;;;;;;;;;;3563886;40;20405;-82
2021/07/21 10:47:24;;;;;;;9.27;8.50;;;;;;;;;;3542121;40;20410;-81
2021/07/21 10:50:09;;;;;;;8.90;8.13;;;;;;;;;;3559575;40;21361;-81
2021/07/21 10:55:17;;;;;;;9.83;9.10;;;;;;;;;;3558055;40;22452;-81
2021/07/21 11:00:43;;;;;;;9.97;9.37;;;;;;;;;;3559337;40;20819;-80
2021/07/21 11:03:16;;;;;;;9.00;8.37;;;;;;;;;;3557462;40;20910;-81
2021/07/21 11:05:51;;;;;;;10.50;9.80;;;;;;;;;;3559198;40;20686;-81
2021/07/21 11:08:29;;;;;;;10.00;9.27;;;;;;;;;;3567205;40;20421;-81
2021/07/21 11:11:04;;;;;;;10.20;9.40;;;;;;;;;;3542176;40;20434;-82
2021/07/21 11:13:33;;;;;;;10.50;9.80;;;;;;;;;;3552156;40;20410;-82
2021/07/21 11:16:01;;;;;;;9.50;8.80;;;;;;;;;;3560321;40;20415;-81
2021/07/21 11:18:28;;;;;;;9.83;8.93;;;;;;;;;;3560398;40;20502;-81
2021/07/21 11:20:57;;;;;;;9.80;9.10;;;;;;;;;;3563735;40;20403;-80
2021/07/21 11:23:43;;;;;;;10.90;10.10;;;;;;;;;;3562075;40;20405;-81
2021/07/21 11:26:29;;;;;;;10.27;9.47;;;;;;;;;;3545426;40;20414;-82
2021/07/21 11:28:58;;;;;;;9.80;8.80;;;;;;;;;;3562091;40;20442;-82
2021/07/21 11:32:00;;;;;;;10.20;9.50;;;;;;;;;;3558741;40;20834;-82
2021/07/21 11:34:32;;;;;;;10.03;9.33;;;;;;;;;;3510662;40;20508;-81
2021/07/21 11:37:08;;;;;;;10.73;9.87;;;;;;;;;;3495380;40;20521;-80
2021/07/21 11:39:46;;;;;;;11.20;10.10;;;;;;;;;;3518352;40;20469;-82
2021/07/21 11:42:35;;;;;;;10.80;9.80;;;;;;;;;;3508649;40;20464;-82
2021/07/21 11:45:08;;;;;;;11.13;10.23;;;;;;;;;;3510556;40;20469;-81
2021/07/21 11:47:59;;;;;;;9.70;8.90;;;;;;;;;;3516037;40;20847;-81
2021/07/21 11:50:31;;;;;;;10.10;9.40;;;;;;;;;;3499830;40;20966;-80
2021/07/21 11:52:59;;;;;;;10.77;9.90;;;;;;;;;;3501935;40;20906;-81
2021/07/21 11:55:53;;;;;;;9.90;9.20;;;;;;;;;;3503269;40;20486;-80
2021/07/21 11:58:19;;;;;;;10.00;9.10;;;;;;;;;;3516867;40;20831;-80
2021/07/21 12:00:51;;;;;;;9.10;8.30;;;;;;;;;;3517735;40;20497;-80
2021/07/21 12:03:18;;;;;;;10.90;10.00;;;;;;;;;;3518900;40;20442;-81
2021/07/21 12:05:53;;;;;;;8.60;8.00;;;;;;;;;;3519303;40;20520;-81
2021/07/21 12:08:20;;;;;;;9.50;8.70;;;;;;;;;;3537923;40;20469;-80
2021/07/21 12:10:47;;;;;;;9.47;8.77;;;;;;;;;;3555718;40;20427;-80
2021/07/21 12:13:15;;;;;;;9.17;8.57;;;;;;;;;;3557684;40;20387;-79
2021/07/21 12:15:42;;;;;;;9.37;8.50;;;;;;;;;;3555121;40;21010;-80
2021/07/21 12:18:15;;;;;;;10.10;8.70;;;;;;;;;;3548111;40;20446;-80
2021/07/21 12:20:42;;;;;;;10.53;9.73;;;;;;;;;;3539999;40;20787;-80
2021/07/21 12:23:08;;;;;;;9.20;8.60;;;;;;;;;;3540939;40;20454;-80
2021/07/21 12:25:35;;;;;;;10.17;9.47;;;;;;;;;;3556990;40;20422;-81
2021/07/21 12:28:01;;;;;;;12.03;11.03;;;;;;;;;;3545793;40;22752;-80
2021/07/21 12:30:35;;;;;;;10.57;9.77;;;;;;;;;;3555326;40;20429;-80
2021/07/21 12:33:03;;;;;;;10.77;9.90;;;;;;;;;;3548846;40;20404;-82
2021/07/21 12:35:30;;;;;;;10.37;9.57;;;;;;;;;;3565688;40;22780;-80
2021/07/21 12:37:58;;;;;;;11.53;10.47;;;;;;;;;;3542914;40;20882;-80
2021/07/21 12:40:26;;;;;;;12.07;11.17;;;;;;;;;;3564987;40;20425;-81
2021/07/21 12:42:54;;;;;;;11.80;11.00;;;;;;;;;;3556688;40;20403;-80
2021/07/21 12:45:21;;;;;;;11.37;10.30;;;;;;;;;;3557646;40;20421;-80
2021/07/21 12:47:48;;;;;;;11.53;10.53;;;;;;;;;;3546869;40;20418;-80
2021/07/21 12:50:27;;;;;;;11.40;10.60;;;;;;;;;;3557158;40;20524;-80
2021/07/21 12:53:01;;;;;;;13.33;12.13;;;;;;;;;;3539145;40;20455;-80
2021/07/21 12:55:32;;;;;;;11.80;10.70;;;;;;;;;;3558021;40;21091;-81
2021/07/21 12:57:59;;;;;;;12.13;11.13;;;;;;;;;;3557632;40;20448;-81
2021/07/21 13:00:30;;;;;;;11.10;10.20;;;;;;;;;;3537478;40;20472;-80
2021/07/21 13:03:07;;;;;;;10.30;9.60;;;;;;;;;;3538509;40;20557;-81
2021/07/21 13:05:35;;;;;;;11.97;11.17;;;;;;;;;;3545056;40;20480;-81
2021/07/21 13:08:01;;;;;;;13.07;12.07;;;;;;;;;;3556522;40;20493;-79
2021/07/21 13:10:28;;;;;;;12.37;11.57;;;;;;;;;;3557680;40;20611;-80
2021/07/21 13:12:54;;;;;;;11.60;10.67;;;;;;;;;;3547118;40;20402;-80
2021/07/21 13:15:25;;;;;;;13.03;12.13;;;;;;;;;;3553269;40;22075;-79
2021/07/21 13:18:00;;;;;;;11.07;10.37;;;;;;;;;;3555076;40;20429;-80
2021/07/21 13:20:31;;;;;;;12.10;11.20;;;;;;;;;;3556146;40;20436;-80
2021/07/21 13:23:17;;;;;;;13.10;12.10;;;;;;;;;;3556291;40;20447;-80
2021/07/21 13:25:45;;;;;;;12.77;11.13;;;;;;;;;;3558995;40;21241;-80
2021/07/21 13:28:19;;;;;;;13.00;11.90;;;;;;;;;;3567844;40;20535;-80
2021/07/21 13:30:45;;;;;;;12.07;11.17;;;;;;;;;;3562120;40;20480;-81
2021/07/21 13:33:11;;;;;;;11.53;10.63;;;;;;;;;;3557764;40;20491;-80
2021/07/21 13:35:38;;;;;;;10.83;10.03;;;;;;;;;;3566834;40;20552;-80
2021/07/21 13:38:05;;;;;;;12.80;11.83;;;;;;;;;;3557797;40;20415;-80
2021/07/21 13:40:31;;;;;;;12.70;10.33;;;;;;;;;;3565759;40;21171;-81
2021/07/21 13:43:04;;;;;;;12.23;10.90;;;;;;;;;;3566245;40;20472;-79
2021/07/21 13:45:31;;;;;;;12.17;11.27;;;;;;;;;;3556529;40;20838;-79
2021/07/21 13:47:59;;;;;;;13.40;12.50;;;;;;;;;;3558614;40;20405;-79
2021/07/21 13:50:25;;;;;;;12.97;12.10;;;;;;;;;;3557274;40;20430;-80
2021/07/21 13:53:01;;;;;;;14.97;13.17;;;;;;;;;;3558337;40;20400;-80
2021/07/21 13:55:28;;;;;;;14.73;13.63;;;;;;;;;;3558326;40;20441;-80
2021/07/21 13:57:54;;;;;;;12.20;11.40;;;;;;;;;;3559727;40;20421;-80
2021/07/21 14:00:22;;;;;;;12.73;11.73;;;;;;;;;;3550089;40;20439;-80
2021/07/21 14:02:49;;;;;;;13.53;12.63;;;;;;;;;;3549657;40;20460;-79
2021/07/21 14:05:15;;;;;;;14.23;13.23;;;;;;;;;;3557819;40;20424;-80
2021/07/21 14:07:41;;;;;;;13.77;12.63;;;;;;;;;;3557860;40;20422;-81
2021/07/21 14:10:07;;;;;;;13.53;12.63;;;;;;;;;;3551024;40;20402;-80
2021/07/21 14:12:34;;;;;;;14.20;13.20;;;;;;;;;;3549665;40;20435;-80
2021/07/21 14:15:00;;;;;;;13.00;11.90;;;;;;;;;;3549354;40;20417;-79
2021/07/21 14:17:27;;;;;;;11.47;10.67;;;;;;;;;;3552900;40;20398;-80
2021/07/21 14:19:53;;;;;;;12.33;9.50;;;;;;;;;;3568184;40;20433;-80
2021/07/21 14:22:19;;;;;;;9.27;8.57;;;;;;;;;;3557799;40;21297;-80
2021/07/21 14:24:45;;;;;;;10.13;9.27;;;;;;;;;;3556996;40;20915;-81
2021/07/21 14:27:12;;;;;;;10.30;9.50;;;;;;;;;;3546232;40;20414;-79
2021/07/21 14:29:38;;;;;;;10.27;9.37;;;;;;;;;;3548900;40;20414;-80
2021/07/21 14:32:05;;;;;;;11.03;10.13;;;;;;;;;;3556642;40;20401;-79
2021/07/21 14:34:31;;;;;;;12.80;11.80;;;;;;;;;;3565681;40;20512;-79
2021/07/21 14:36:57;;;;;;;11.93;10.80;;;;;;;;;;3547747;40;20410;-80
2021/07/21 14:39:24;;;;;;;9.93;9.13;;;;;;;;;;3558151;40;20420;-80
2021/07/21 14:41:52;;;;;;;11.97;10.90;;;;;;;;;;3567880;40;20406;-81
2021/07/21 14:44:19;;;;;;;10.23;9.43;;;;;;;;;;3557097;40;20461;-80
2021/07/21 14:46:46;;;;;;;12.70;11.60;;;;;;;;;;3565687;40;20398;-81
2021/07/21 14:49:12;;;;;;;11.87;10.97;;;;;;;;;;3555862;40;20429;-81
2021/07/21 14:51:39;;;;;;;12.53;11.63;;;;;;;;;;3565381;40;20441;-80
2021/07/21 14:54:07;;;;;;;15.03;13.73;;;;;;;;;;3549118;40;20524;-80
2021/07/21 14:56:33;;;;;;;12.33;11.43;;;;;;;;;;3556768;40;20495;-80
2021/07/21 14:59:03;;;;;;;14.23;12.90;;;;;;;;;;3566531;40;20402;-79
2021/07/21 15:01:34;;;;;;;11.20;10.03;;;;;;;;;;3549810;40;20394;-80